Aérodrome :
LOGIN :

S'inscrire | Disclaimer

   EN    FR    IT 

 










Légende :    VFR   VFR Marginal   IFR   IFR Intensif   IFR Très Intensif
Visi : 
Plafond : 
>= 8 km
>= 3000ft
5 à 8 km
1000 à 3000 ft
1500m à 5 km
500 à 1000 ft
800 à 1500m
200 à 500 ft
< 800m
< 200 ft
Symboles :   Orages  Brouillard  Fortes neiges  Fortes précipitations  Vent > 20 kt
SIGMETs :   Divers  Orages  Givrage  Turbulence  Onde Orograph.  Cendres Volcan.






- Altitude de l'aérodrome : 17 ft
- Code IATA : KLR


ESMQ - Kalmar

DERNIER METAR :
  • 180320Z AUTO 17002KT 0500 R16/1400N R34/P1500N BR FEW011/// SCT050/// BKN076/// 11/11 Q1011

METARs EXPIRÉS :
  • 180250Z AUTO 17003KT 2400 BR SCT012/// OVC079/// 11/11 Q1011
  • 180220Z AUTO 16004KT 5000 BR FEW013/// OVC077/// 11/11 Q1011
  • 180150Z AUTO 17004KT 2100 BR FEW019/// BKN077/// 12/12 Q1011
  • 180120Z AUTO 18003KT 9999 BKN014/// 12/12 Q1011
  • 180050Z AUTO 23005KT 9999 FEW007/// SCT009/// BKN071/// 13/12 Q1011

TAF TAF ESMQ
Valide du 18 à 04h jusqu'au 18 à 12h UTC


180330Z 1804/1812 16004KT 5000 SCT010
TEMPO 1804/1807 0500 BCFG BKN002
TEMPO 1807/1812 2000 RADZ BKN004



MET'MAP, la Météo Aéronautique d'un coup d'oeil ! - Copyright ORBIFLY Décembre 2007 - Disclaimer

ORBIFLY MET'MAP TEAM :

Programmation & Développement : Alexandra Zaïnal
Conception & Développement : Baudouin d'Aumeries
Co-Programmation & Développement : Marc-Olivier Méhu
Soutien technique & logistique : Manuel Goepfert

Contact : metmap@orbifly.com




SOURCES & CREDITS :

   NOAA